Pacific Junction, Iowa
Current Conditions -  °F | °C
As of 7:15 AM on Friday 31 Oct 2014 (Local Time) from KPMV Reporting Station
Scattered Clouds Scattered Clouds  
Wind Chill: 20°   Ceiling: Unl
Heat Index: 29°   Visibility: 10mi
Dew Point: 19°   Wind: 9mph
Humidity: 68%   Direction: 330°NNW
Pressure: 30.51"   Gusts: NA
Location:  41.02°N, 95.8°W
Report Text: KPMV 311215Z AUTO 33008KT 10SM SCT100 M02/M07 A3051 RMK AO2 T10181071
Loading
Personal Weather Stations






























Interactive Weather Map
Tropical Storm Tracking
New forecast layout! Learn more

10-Day Weather Forecast

Advertisements
Track Severe Weather on mobile